sensor_id;sensor_type;location;lat;lon;timestamp;pressure;altitude;pressure_sealevel;temperature;humidity
36692;BME280;22678;52.052;4.242;2024-01-11T00:02:16;103413.38;;;-2.84;61.42
36692;BME280;22678;52.052;4.242;2024-01-11T00:04:43;103413.38;;;-2.84;61.38
36692;BME280;22678;52.052;4.242;2024-01-11T00:07:09;103410.09;;;-2.92;61.11
36692;BME280;22678;52.052;4.242;2024-01-11T00:09:39;103407.66;;;-2.90;61.41
36692;BME280;22678;52.052;4.242;2024-01-11T00:12:05;103414.00;;;-2.87;61.68
36692;BME280;22678;52.052;4.242;2024-01-11T00:14:31;103419.41;;;-2.84;61.70
36692;BME280;22678;52.052;4.242;2024-01-11T00:16:56;103415.78;;;-2.86;61.65
36692;BME280;22678;52.052;4.242;2024-01-11T00:19:21;103413.06;;;-2.87;61.53
36692;BME280;22678;52.052;4.242;2024-01-11T00:21:47;103418.53;;;-2.84;61.34
36692;BME280;22678;52.052;4.242;2024-01-11T00:24:12;103373.34;;;-3.10;61.72
36692;BME280;22678;52.052;4.242;2024-01-11T00:26:38;103389.44;;;-3.02;61.72
36692;BME280;22678;52.052;4.242;2024-01-11T00:29:03;103413.72;;;-2.90;61.71
36692;BME280;22678;52.052;4.242;2024-01-11T00:31:29;103385.72;;;-3.06;61.89
36692;BME280;22678;52.052;4.242;2024-01-11T00:33:55;103406.38;;;-2.95;62.20
36692;BME280;22678;52.052;4.242;2024-01-11T00:36:20;103397.84;;;-3.05;62.33
36692;BME280;22678;52.052;4.242;2024-01-11T00:38:46;103395.75;;;-3.09;62.14
36692;BME280;22678;52.052;4.242;2024-01-11T00:41:11;103415.34;;;-3.01;62.27
36692;BME280;22678;52.052;4.242;2024-01-11T00:43:36;103415.19;;;-3.02;62.41
36692;BME280;22678;52.052;4.242;2024-01-11T00:46:02;103399.16;;;-3.19;62.57
36692;BME280;22678;52.052;4.242;2024-01-11T00:48:27;103400.38;;;-3.15;62.51
36692;BME280;22678;52.052;4.242;2024-01-11T00:50:53;103402.16;;;-3.14;62.91
36692;BME280;22678;52.052;4.242;2024-01-11T00:53:18;103421.75;;;-3.06;62.69
36692;BME280;22678;52.052;4.242;2024-01-11T00:55:43;103404.59;;;-3.15;62.66
36692;BME280;22678;52.052;4.242;2024-01-11T00:58:09;103393.75;;;-3.22;62.86
36692;BME280;22678;52.052;4.242;2024-01-11T01:00:37;103403.16;;;-3.22;63.02
36692;BME280;22678;52.052;4.242;2024-01-11T01:03:03;103379.28;;;-3.30;63.25
36692;BME280;22678;52.052;4.242;2024-01-11T01:05:28;103406.75;;;-3.20;63.36
36692;BME280;22678;52.052;4.242;2024-01-11T01:07:53;103408.31;;;-3.22;63.41
36692;BME280;22678;52.052;4.242;2024-01-11T01:10:19;103420.44;;;-3.11;63.18
36692;BME280;22678;52.052;4.242;2024-01-11T01:12:44;103397.09;;;-3.23;63.38
36692;BME280;22678;52.052;4.242;2024-01-11T01:15:09;103402.50;;;-3.20;63.35
36692;BME280;22678;52.052;4.242;2024-01-11T01:17:35;103402.88;;;-3.25;63.29
36692;BME280;22678;52.052;4.242;2024-01-11T01:20:00;103395.91;;;-3.26;63.38
36692;BME280;22678;52.052;4.242;2024-01-11T01:22:26;103414.00;;;-3.16;63.49
36692;BME280;22678;52.052;4.242;2024-01-11T01:24:51;103409.19;;;-3.22;63.48
36692;BME280;22678;52.052;4.242;2024-01-11T01:27:16;103407.09;;;-3.26;63.77
36692;BME280;22678;52.052;4.242;2024-01-11T01:29:42;103418.38;;;-3.15;63.73
36692;BME280;22678;52.052;4.242;2024-01-11T01:32:07;103426.09;;;-3.15;63.84
36692;BME280;22678;52.052;4.242;2024-01-11T01:34:33;103430.94;;;-3.18;63.60
36692;BME280;22678;52.052;4.242;2024-01-11T01:36:58;103413.38;;;-3.32;64.03
36692;BME280;22678;52.052;4.242;2024-01-11T01:39:24;103421.09;;;-3.32;64.00
36692;BME280;22678;52.052;4.242;2024-01-11T01:41:49;103421.66;;;-3.26;64.12
36692;BME280;22678;52.052;4.242;2024-01-11T01:44:15;103422.63;;;-3.35;64.28
36692;BME280;22678;52.052;4.242;2024-01-11T01:46:40;103447.66;;;-3.23;64.11
36692;BME280;22678;52.052;4.242;2024-01-11T01:49:06;103450.09;;;-3.25;63.91
36692;BME280;22678;52.052;4.242;2024-01-11T01:51:32;103435.75;;;-3.31;64.21
36692;BME280;22678;52.052;4.242;2024-01-11T01:53:58;103442.31;;;-3.35;64.24
36692;BME280;22678;52.052;4.242;2024-01-11T01:56:25;103428.25;;;-3.39;63.97
36692;BME280;22678;52.052;4.242;2024-01-11T01:58:52;103447.59;;;-3.33;64.07
36692;BME280;22678;52.052;4.242;2024-01-11T02:01:19;103441.63;;;-3.43;64.02
36692;BME280;22678;52.052;4.242;2024-01-11T02:03:46;103455.53;;;-3.41;64.21
36692;BME280;22678;52.052;4.242;2024-01-11T02:06:14;103440.28;;;-3.48;64.23
36692;BME280;22678;52.052;4.242;2024-01-11T02:08:42;103467.28;;;-3.34;64.50
36692;BME280;22678;52.052;4.242;2024-01-11T02:11:10;103447.53;;;-3.44;64.81
36692;BME280;22678;52.052;4.242;2024-01-11T02:13:35;103431.41;;;-3.52;64.66
36692;BME280;22678;52.052;4.242;2024-01-11T02:16:01;103416.66;;;-3.63;64.35
36692;BME280;22678;52.052;4.242;2024-01-11T02:18:26;103419.38;;;-3.61;64.67
36692;BME280;22678;52.052;4.242;2024-01-11T02:20:52;103441.22;;;-3.47;64.82
36692;BME280;22678;52.052;4.242;2024-01-11T02:23:19;103467.16;;;-3.36;64.89
36692;BME280;22678;52.052;4.242;2024-01-11T02:25:46;103429.19;;;-3.57;64.73
36692;BME280;22678;52.052;4.242;2024-01-11T02:28:12;103428.84;;;-3.52;64.78
36692;BME280;22678;52.052;4.242;2024-01-11T02:30:37;103420.41;;;-3.59;65.16
36692;BME280;22678;52.052;4.242;2024-01-11T02:33:04;103451.72;;;-3.36;65.16
36692;BME280;22678;52.052;4.242;2024-01-11T02:35:30;103442.66;;;-3.41;65.09
36692;BME280;22678;52.052;4.242;2024-01-11T02:37:57;103451.78;;;-3.44;65.28
36692;BME280;22678;52.052;4.242;2024-01-11T02:40:22;103452.69;;;-3.44;65.47
36692;BME280;22678;52.052;4.242;2024-01-11T02:42:48;103416.50;;;-3.64;65.27
36692;BME280;22678;52.052;4.242;2024-01-11T02:45:13;103457.53;;;-3.47;65.37
36692;BME280;22678;52.052;4.242;2024-01-11T02:47:39;103449.41;;;-3.52;65.41
36692;BME280;22678;52.052;4.242;2024-01-11T02:50:06;103447.47;;;-3.54;65.36
36692;BME280;22678;52.052;4.242;2024-01-11T02:52:32;103454.41;;;-3.53;65.33
36692;BME280;22678;52.052;4.242;2024-01-11T02:54:58;103475.84;;;-3.44;65.71
36692;BME280;22678;52.052;4.242;2024-01-11T02:57:23;103460.31;;;-3.54;65.73
36692;BME280;22678;52.052;4.242;2024-01-11T02:59:49;103450.22;;;-3.61;65.55
36692;BME280;22678;52.052;4.242;2024-01-11T03:02:14;103444.06;;;-3.63;65.91
36692;BME280;22678;52.052;4.242;2024-01-11T03:04:40;103461.06;;;-3.55;65.84
36692;BME280;22678;52.052;4.242;2024-01-11T03:07:05;103423.81;;;-3.69;65.80
36692;BME280;22678;52.052;4.242;2024-01-11T03:09:31;103454.91;;;-3.57;66.11
36692;BME280;22678;52.052;4.242;2024-01-11T03:11:56;103462.13;;;-3.53;66.07
36692;BME280;22678;52.052;4.242;2024-01-11T03:14:22;103455.66;;;-3.58;66.23
36692;BME280;22678;52.052;4.242;2024-01-11T03:16:48;103456.41;;;-3.59;66.16
36692;BME280;22678;52.052;4.242;2024-01-11T03:19:14;103448.78;;;-3.68;65.94
36692;BME280;22678;52.052;4.242;2024-01-11T03:21:43;103470.34;;;-3.57;65.93
36692;BME280;22678;52.052;4.242;2024-01-11T03:24:08;103466.69;;;-3.59;66.08
36692;BME280;22678;52.052;4.242;2024-01-11T03:26:34;103445.94;;;-3.80;65.84
36692;BME280;22678;52.052;4.242;2024-01-11T03:28:59;103456.97;;;-3.72;66.18
36692;BME280;22678;52.052;4.242;2024-01-11T03:31:25;103466.19;;;-3.74;66.20
36692;BME280;22678;52.052;4.242;2024-01-11T03:33:50;103479.97;;;-3.74;66.11
36692;BME280;22678;52.052;4.242;2024-01-11T03:36:16;103460.81;;;-3.86;66.36
36692;BME280;22678;52.052;4.242;2024-01-11T03:38:41;103450.13;;;-3.91;66.21
36692;BME280;22678;52.052;4.242;2024-01-11T03:41:08;103475.78;;;-3.82;66.54
36692;BME280;22678;52.052;4.242;2024-01-11T03:43:35;103464.38;;;-3.94;66.77
36692;BME280;22678;52.052;4.242;2024-01-11T03:46:01;103466.28;;;-3.92;66.65
36692;BME280;22678;52.052;4.242;2024-01-11T03:48:26;103463.31;;;-3.96;66.96
36692;BME280;22678;52.052;4.242;2024-01-11T03:50:51;103456.09;;;-4.00;67.01
36692;BME280;22678;52.052;4.242;2024-01-11T03:53:17;103465.59;;;-3.99;67.01
36692;BME280;22678;52.052;4.242;2024-01-11T03:55:42;103464.56;;;-4.01;67.07
36692;BME280;22678;52.052;4.242;2024-01-11T03:58:08;103471.19;;;-4.03;66.94
36692;BME280;22678;52.052;4.242;2024-01-11T04:00:33;103469.97;;;-3.98;67.18
36692;BME280;22678;52.052;4.242;2024-01-11T04:02:59;103451.88;;;-4.09;67.34
36692;BME280;22678;52.052;4.242;2024-01-11T04:05:24;103484.16;;;-3.93;67.43
36692;BME280;22678;52.052;4.242;2024-01-11T04:07:50;103471.50;;;-4.00;67.33
36692;BME280;22678;52.052;4.242;2024-01-11T04:10:17;103483.88;;;-3.96;67.41
36692;BME280;22678;52.052;4.242;2024-01-11T04:12:43;103435.81;;;-4.25;67.46
36692;BME280;22678;52.052;4.242;2024-01-11T04:15:08;103472.72;;;-4.06;67.77
36692;BME280;22678;52.052;4.242;2024-01-11T04:17:36;103476.22;;;-4.14;67.40
36692;BME280;22678;52.052;4.242;2024-01-11T04:20:03;103463.91;;;-4.27;67.95
36692;BME280;22678;52.052;4.242;2024-01-11T04:22:29;103501.47;;;-4.10;68.11
36692;BME280;22678;52.052;4.242;2024-01-11T04:24:55;103480.94;;;-4.18;68.14
36692;BME280;22678;52.052;4.242;2024-01-11T04:27:20;103462.84;;;-4.29;68.23
36692;BME280;22678;52.052;4.242;2024-01-11T04:29:46;103472.81;;;-4.23;68.43
36692;BME280;22678;52.052;4.242;2024-01-11T04:32:11;103478.28;;;-4.29;68.13
36692;BME280;22678;52.052;4.242;2024-01-11T04:34:36;103505.91;;;-4.17;68.56
36692;BME280;22678;52.052;4.242;2024-01-11T04:37:02;103487.66;;;-4.29;68.63
36692;BME280;22678;52.052;4.242;2024-01-11T04:39:27;103497.03;;;-4.30;68.77
36692;BME280;22678;52.052;4.242;2024-01-11T04:41:53;103511.22;;;-4.25;68.97
36692;BME280;22678;52.052;4.242;2024-01-11T04:44:18;103468.69;;;-4.49;68.77
36692;BME280;22678;52.052;4.242;2024-01-11T04:46:43;103479.84;;;-4.48;68.88
36692;BME280;22678;52.052;4.242;2024-01-11T04:49:09;103508.22;;;-4.38;68.95
36692;BME280;22678;52.052;4.242;2024-01-11T04:51:34;103505.69;;;-4.47;69.25
36692;BME280;22678;52.052;4.242;2024-01-11T04:53:59;103509.78;;;-4.49;69.15
36692;BME280;22678;52.052;4.242;2024-01-11T04:56:26;103536.03;;;-4.34;69.20
36692;BME280;22678;52.052;4.242;2024-01-11T04:58:51;103508.25;;;-4.47;69.52
36692;BME280;22678;52.052;4.242;2024-01-11T05:01:17;103520.94;;;-4.40;69.46
36692;BME280;22678;52.052;4.242;2024-01-11T05:03:46;103534.06;;;-4.36;69.49
36692;BME280;22678;52.052;4.242;2024-01-11T05:06:19;103531.22;;;-4.40;69.88
36692;BME280;22678;52.052;4.242;2024-01-11T05:08:46;103521.25;;;-4.54;69.76
36692;BME280;22678;52.052;4.242;2024-01-11T05:11:22;103544.81;;;-4.41;70.09
36692;BME280;22678;52.052;4.242;2024-01-11T05:13:49;103523.53;;;-4.57;70.14
36692;BME280;22678;52.052;4.242;2024-01-11T05:16:28;103539.69;;;-4.58;70.24
36692;BME280;22678;52.052;4.242;2024-01-11T05:18:55;103550.25;;;-4.46;70.54
36692;BME280;22678;52.052;4.242;2024-01-11T05:21:21;103524.91;;;-4.61;70.50
36692;BME280;22678;52.052;4.242;2024-01-11T05:23:47;103545.44;;;-4.52;70.51
36692;BME280;22678;52.052;4.242;2024-01-11T05:26:16;103556.91;;;-4.48;70.68
36692;BME280;22678;52.052;4.242;2024-01-11T05:28:42;103514.66;;;-4.69;70.93
36692;BME280;22678;52.052;4.242;2024-01-11T05:31:11;103547.53;;;-4.48;70.91
36692;BME280;22678;52.052;4.242;2024-01-11T05:33:40;103544.22;;;-4.47;71.08
36692;BME280;22678;52.052;4.242;2024-01-11T05:36:06;103545.13;;;-4.46;71.27
36692;BME280;22678;52.052;4.242;2024-01-11T05:38:32;103549.34;;;-4.47;71.23
36692;BME280;22678;52.052;4.242;2024-01-11T05:40:58;103552.81;;;-4.46;71.82
36692;BME280;22678;52.052;4.242;2024-01-11T05:43:23;103547.69;;;-4.46;71.78
36692;BME280;22678;52.052;4.242;2024-01-11T05:45:49;103538.78;;;-4.50;72.03
36692;BME280;22678;52.052;4.242;2024-01-11T05:48:15;103539.81;;;-4.48;72.06
36692;BME280;22678;52.052;4.242;2024-01-11T05:50:41;103545.44;;;-4.52;72.19
36692;BME280;22678;52.052;4.242;2024-01-11T05:53:07;103541.81;;;-4.54;72.19
36692;BME280;22678;52.052;4.242;2024-01-11T05:55:32;103546.94;;;-4.54;72.55
36692;BME280;22678;52.052;4.242;2024-01-11T05:57:58;103556.31;;;-4.54;72.62
36692;BME280;22678;52.052;4.242;2024-01-11T06:00:23;103557.97;;;-4.55;72.44
36692;BME280;22678;52.052;4.242;2024-01-11T06:02:48;103550.25;;;-4.55;72.64
36692;BME280;22678;52.052;4.242;2024-01-11T06:05:14;103552.69;;;-4.57;72.88
36692;BME280;22678;52.052;4.242;2024-01-11T06:07:40;103545.63;;;-4.59;72.77
36692;BME280;22678;52.052;4.242;2024-01-11T06:10:06;103532.47;;;-4.62;72.88
36692;BME280;22678;52.052;4.242;2024-01-11T06:12:34;103531.09;;;-4.67;72.92
36692;BME280;22678;52.052;4.242;2024-01-11T06:15:00;103551.81;;;-4.66;73.13
36692;BME280;22678;52.052;4.242;2024-01-11T06:17:25;103555.75;;;-4.69;73.18
36692;BME280;22678;52.052;4.242;2024-01-11T06:19:51;103567.50;;;-4.71;73.49
36692;BME280;22678;52.052;4.242;2024-01-11T06:22:16;103558.16;;;-4.80;73.27
36692;BME280;22678;52.052;4.242;2024-01-11T06:24:43;103557.09;;;-4.82;73.28
36692;BME280;22678;52.052;4.242;2024-01-11T06:27:09;103544.56;;;-4.79;73.56
36692;BME280;22678;52.052;4.242;2024-01-11T06:29:35;103549.41;;;-4.82;73.43
36692;BME280;22678;52.052;4.242;2024-01-11T06:32:00;103542.13;;;-4.86;73.69
36692;BME280;22678;52.052;4.242;2024-01-11T06:34:26;103561.78;;;-4.86;73.78
36692;BME280;22678;52.052;4.242;2024-01-11T06:36:51;103566.75;;;-4.88;73.79
36692;BME280;22678;52.052;4.242;2024-01-11T06:39:17;103580.81;;;-4.93;74.04
36692;BME280;22678;52.052;4.242;2024-01-11T06:41:42;103583.53;;;-4.91;73.82
36692;BME280;22678;52.052;4.242;2024-01-11T06:44:09;103586.25;;;-4.99;74.24
36692;BME280;22678;52.052;4.242;2024-01-11T06:46:34;103595.88;;;-4.96;74.44
36692;BME280;22678;52.052;4.242;2024-01-11T06:49:01;103611.78;;;-4.91;73.93
36692;BME280;22678;52.052;4.242;2024-01-11T06:51:26;103613.72;;;-4.89;74.31
36692;BME280;22678;52.052;4.242;2024-01-11T06:53:52;103603.44;;;-4.89;74.76
36692;BME280;22678;52.052;4.242;2024-01-11T06:56:19;103612.22;;;-4.87;74.74
36692;BME280;22678;52.052;4.242;2024-01-11T06:58:46;103615.53;;;-4.88;74.85
36692;BME280;22678;52.052;4.242;2024-01-11T07:01:12;103626.69;;;-4.87;74.78
36692;BME280;22678;52.052;4.242;2024-01-11T07:03:38;103633.50;;;-4.88;75.19
36692;BME280;22678;52.052;4.242;2024-01-11T07:06:04;103631.97;;;-4.86;75.22
36692;BME280;22678;52.052;4.242;2024-01-11T07:08:30;103638.19;;;-4.84;75.37
36692;BME280;22678;52.052;4.242;2024-01-11T07:10:56;103627.34;;;-4.81;75.88
36692;BME280;22678;52.052;4.242;2024-01-11T07:13:22;103636.97;;;-4.79;75.79
36692;BME280;22678;52.052;4.242;2024-01-11T07:15:47;103623.09;;;-4.81;75.97
36692;BME280;22678;52.052;4.242;2024-01-11T07:18:17;103628.84;;;-4.75;76.24
36692;BME280;22678;52.052;4.242;2024-01-11T07:20:42;103632.47;;;-4.72;76.42
36692;BME280;22678;52.052;4.242;2024-01-11T07:23:08;103637.91;;;-4.69;76.58
36692;BME280;22678;52.052;4.242;2024-01-11T07:25:34;103616.75;;;-4.76;76.84
36692;BME280;22678;52.052;4.242;2024-01-11T07:28:00;103628.84;;;-4.66;77.07
36692;BME280;22678;52.052;4.242;2024-01-11T07:30:25;103630.66;;;-4.65;77.52
36692;BME280;22678;52.052;4.242;2024-01-11T07:32:51;103620.09;;;-4.68;77.27
36692;BME280;22678;52.052;4.242;2024-01-11T07:35:16;103605.88;;;-4.73;77.25
36692;BME280;22678;52.052;4.242;2024-01-11T07:37:42;103618.84;;;-4.71;77.24
36692;BME280;22678;52.052;4.242;2024-01-11T07:40:08;103614.94;;;-4.68;77.40
36692;BME280;22678;52.052;4.242;2024-01-11T07:42:39;103611.16;;;-4.71;77.84
36692;BME280;22678;52.052;4.242;2024-01-11T07:45:06;103607.41;;;-4.75;77.94
36692;BME280;22678;52.052;4.242;2024-01-11T07:47:32;103610.72;;;-4.67;77.90
36692;BME280;22678;52.052;4.242;2024-01-11T07:49:58;103604.53;;;-4.69;78.05
36692;BME280;22678;52.052;4.242;2024-01-11T07:52:23;103609.19;;;-4.65;78.31
36692;BME280;22678;52.052;4.242;2024-01-11T07:54:49;103604.97;;;-4.65;78.31
36692;BME280;22678;52.052;4.242;2024-01-11T07:57:14;103596.53;;;-4.72;78.35
36692;BME280;22678;52.052;4.242;2024-01-11T07:59:39;103602.84;;;-4.69;78.07
36692;BME280;22678;52.052;4.242;2024-01-11T08:02:06;103607.09;;;-4.69;78.58
36692;BME280;22678;52.052;4.242;2024-01-11T08:04:31;103607.69;;;-4.72;78.27
36692;BME280;22678;52.052;4.242;2024-01-11T08:06:57;103610.13;;;-4.73;78.64
36692;BME280;22678;52.052;4.242;2024-01-11T08:09:27;103601.03;;;-4.79;78.49
36692;BME280;22678;52.052;4.242;2024-01-11T08:11:53;103612.81;;;-4.81;78.72
36692;BME280;22678;52.052;4.242;2024-01-11T08:14:20;103620.53;;;-4.81;78.68
36692;BME280;22678;52.052;4.242;2024-01-11T08:16:45;103622.19;;;-4.81;78.96
36692;BME280;22678;52.052;4.242;2024-01-11T08:19:10;103624.63;;;-4.83;79.41
36692;BME280;22678;52.052;4.242;2024-01-11T08:21:39;103632.16;;;-4.84;79.30
36692;BME280;22678;52.052;4.242;2024-01-11T08:24:04;103629.41;;;-4.86;79.28
36692;BME280;22678;52.052;4.242;2024-01-11T08:26:30;103625.81;;;-4.88;79.29
36692;BME280;22678;52.052;4.242;2024-01-11T08:28:56;103627.34;;;-4.81;79.46
36692;BME280;22678;52.052;4.242;2024-01-11T08:31:21;103633.66;;;-4.78;79.60
36692;BME280;22678;52.052;4.242;2024-01-11T08:33:46;103615.53;;;-4.79;80.03
36692;BME280;22678;52.052;4.242;2024-01-11T08:36:12;103638.81;;;-4.69;80.27
36692;BME280;22678;52.052;4.242;2024-01-11T08:38:37;103635.34;;;-4.69;80.20
36692;BME280;22678;52.052;4.242;2024-01-11T08:41:04;103620.38;;;-4.73;80.00
36692;BME280;22678;52.052;4.242;2024-01-11T08:43:29;103632.63;;;-4.62;80.45
36692;BME280;22678;52.052;4.242;2024-01-11T08:45:54;103648.94;;;-4.53;80.31
36692;BME280;22678;52.052;4.242;2024-01-11T08:48:20;103638.22;;;-4.49;80.59
36692;BME280;22678;52.052;4.242;2024-01-11T08:50:46;103632.78;;;-4.52;80.60
36692;BME280;22678;52.052;4.242;2024-01-11T08:53:12;103640.44;;;-4.43;80.57
36692;BME280;22678;52.052;4.242;2024-01-11T08:55:37;103619.75;;;-4.45;80.75
36692;BME280;22678;52.052;4.242;2024-01-11T08:58:03;103645.44;;;-4.36;80.96
36692;BME280;22678;52.052;4.242;2024-01-11T09:00:29;103645.91;;;-4.31;80.93
36692;BME280;22678;52.052;4.242;2024-01-11T09:02:55;103627.44;;;-4.36;81.17
36692;BME280;22678;52.052;4.242;2024-01-11T09:05:20;103654.34;;;-4.24;81.39
36692;BME280;22678;52.052;4.242;2024-01-11T09:07:46;103660.53;;;-4.13;81.43
36692;BME280;22678;52.052;4.242;2024-01-11T09:10:12;103674.75;;;-4.08;81.58
36692;BME280;22678;52.052;4.242;2024-01-11T09:12:38;103669.25;;;-4.02;81.78
36692;BME280;22678;52.052;4.242;2024-01-11T09:15:03;103671.69;;;-3.95;81.98
36692;BME280;22678;52.052;4.242;2024-01-11T09:17:29;103674.38;;;-3.84;81.97
36692;BME280;22678;52.052;4.242;2024-01-11T09:19:54;103670.13;;;-3.75;82.17
36692;BME280;22678;52.052;4.242;2024-01-11T09:22:20;103679.91;;;-3.62;82.24
36692;BME280;22678;52.052;4.242;2024-01-11T09:24:45;103669.16;;;-3.58;82.20
36692;BME280;22678;52.052;4.242;2024-01-11T09:27:10;103674.88;;;-3.52;82.35
36692;BME280;22678;52.052;4.242;2024-01-11T09:29:36;103687.84;;;-3.42;82.66
36692;BME280;22678;52.052;4.242;2024-01-11T09:32:01;103699.88;;;-3.23;82.38
36692;BME280;22678;52.052;4.242;2024-01-11T09:34:26;103701.34;;;-3.17;82.76
36692;BME280;22678;52.052;4.242;2024-01-11T09:36:52;103701.31;;;-3.08;82.59
36692;BME280;22678;52.052;4.242;2024-01-11T09:39:17;103702.47;;;-2.95;82.76
36692;BME280;22678;52.052;4.242;2024-01-11T09:41:53;103710.28;;;-2.85;82.83
36692;BME280;22678;52.052;4.242;2024-01-11T09:44:23;103704.66;;;-2.81;82.98
36692;BME280;22678;52.052;4.242;2024-01-11T09:46:49;103715.66;;;-2.73;82.97
36692;BME280;22678;52.052;4.242;2024-01-11T09:49:16;103727.56;;;-2.65;82.86
36692;BME280;22678;52.052;4.242;2024-01-11T09:51:42;103730.72;;;-2.59;83.79
36692;BME280;22678;52.052;4.242;2024-01-11T09:54:09;103726.75;;;-2.55;83.82
36692;BME280;22678;52.052;4.242;2024-01-11T09:56:36;103715.22;;;-2.50;83.96
36692;BME280;22678;52.052;4.242;2024-01-11T09:59:04;103720.91;;;-2.44;84.11
36692;BME280;22678;52.052;4.242;2024-01-11T10:01:31;103728.59;;;-2.35;84.64
36692;BME280;22678;52.052;4.242;2024-01-11T10:03:56;103737.00;;;-2.27;85.02
36692;BME280;22678;52.052;4.242;2024-01-11T10:06:23;103725.59;;;-2.21;85.94
36692;BME280;22678;52.052;4.242;2024-01-11T10:08:49;103733.53;;;-2.09;86.00
36692;BME280;22678;52.052;4.242;2024-01-11T10:11:15;103710.59;;;-2.06;86.34
36692;BME280;22678;52.052;4.242;2024-01-11T10:13:40;103734.13;;;-1.92;86.38
36692;BME280;22678;52.052;4.242;2024-01-11T10:16:09;103718.00;;;-1.90;86.69
36692;BME280;22678;52.052;4.242;2024-01-11T10:18:38;103725.16;;;-1.77;86.72
36692;BME280;22678;52.052;4.242;2024-01-11T10:21:03;103701.94;;;-1.77;86.51
36692;BME280;22678;52.052;4.242;2024-01-11T10:23:29;103711.94;;;-1.61;86.87
36692;BME280;22678;52.052;4.242;2024-01-11T10:25:56;103702.16;;;-1.55;86.86
36692;BME280;22678;52.052;4.242;2024-01-11T10:28:22;103706.56;;;-1.44;87.43
36692;BME280;22678;52.052;4.242;2024-01-11T10:30:50;103701.31;;;-1.35;87.90
36692;BME280;22678;52.052;4.242;2024-01-11T10:33:15;103703.66;;;-1.28;88.51
36692;BME280;22678;52.052;4.242;2024-01-11T10:35:42;103707.78;;;-1.19;88.42
36692;BME280;22678;52.052;4.242;2024-01-11T10:38:09;103703.16;;;-1.13;88.31
36692;BME280;22678;52.052;4.242;2024-01-11T10:40:35;103684.28;;;-1.12;88.79
36692;BME280;22678;52.052;4.242;2024-01-11T10:43:01;103692.97;;;-1.01;88.66
36692;BME280;22678;52.052;4.242;2024-01-11T10:45:28;103692.56;;;-0.96;88.99
36692;BME280;22678;52.052;4.242;2024-01-11T10:47:55;103688.19;;;-0.86;89.06
36692;BME280;22678;52.052;4.242;2024-01-11T10:50:23;103692.06;;;-0.81;89.22
36692;BME280;22678;52.052;4.242;2024-01-11T10:55:57;103697.75;;;-0.75;89.21
36692;BME280;22678;52.052;4.242;2024-01-11T10:58:24;103706.53;;;-0.73;89.53
36692;BME280;22678;52.052;4.242;2024-01-11T11:00:53;103710.41;;;-0.68;89.89
36692;BME280;22678;52.052;4.242;2024-01-11T11:03:19;103708.88;;;-0.66;89.67
36692;BME280;22678;52.052;4.242;2024-01-11T11:05:45;103704.84;;;-0.62;89.89
36692;BME280;22678;52.052;4.242;2024-01-11T11:08:13;103721.41;;;-0.50;90.22
36692;BME280;22678;52.052;4.242;2024-01-11T11:10:39;103700.03;;;-0.47;90.72
36692;BME280;22678;52.052;4.242;2024-01-11T11:13:05;103709.34;;;-0.39;90.53
36692;BME280;22678;52.052;4.242;2024-01-11T11:15:31;103705.31;;;-0.36;90.34
36692;BME280;22678;52.052;4.242;2024-01-11T11:17:57;103713.06;;;-0.25;91.02
36692;BME280;22678;52.052;4.242;2024-01-11T11:20:22;103715.53;;;-0.27;91.19
36692;BME280;22678;52.052;4.242;2024-01-11T11:23:07;103727.41;;;-0.19;91.55
36692;BME280;22678;52.052;4.242;2024-01-11T11:25:33;103704.16;;;-0.19;92.05
36692;BME280;22678;52.052;4.242;2024-01-11T11:27:59;103704.63;;;-0.12;91.81
36692;BME280;22678;52.052;4.242;2024-01-11T11:30:31;103709.66;;;-0.04;91.51
36692;BME280;22678;52.052;4.242;2024-01-11T11:32:56;103700.47;;;0.00;91.84
36692;BME280;22678;52.052;4.242;2024-01-11T11:35:25;103709.75;;;0.08;91.90
36692;BME280;22678;52.052;4.242;2024-01-11T11:37:55;103685.69;;;0.09;91.74
36692;BME280;22678;52.052;4.242;2024-01-11T11:40:32;103684.34;;;0.14;91.89
36692;BME280;22678;52.052;4.242;2024-01-11T11:42:58;103689.13;;;0.20;91.33
36692;BME280;22678;52.052;4.242;2024-01-11T11:45:25;103695.97;;;0.30;91.88
36692;BME280;22678;52.052;4.242;2024-01-11T11:47:50;103699.56;;;0.32;91.72
36692;BME280;22678;52.052;4.242;2024-01-11T11:50:16;103699.56;;;0.32;91.65
36692;BME280;22678;52.052;4.242;2024-01-11T11:52:44;103695.53;;;0.36;92.00
36692;BME280;22678;52.052;4.242;2024-01-11T11:55:10;103677.03;;;0.31;92.03
36692;BME280;22678;52.052;4.242;2024-01-11T11:57:36;103690.19;;;0.44;92.40
36692;BME280;22678;52.052;4.242;2024-01-11T12:00:02;103671.94;;;0.43;92.46
36692;BME280;22678;52.052;4.242;2024-01-11T12:02:31;103682.09;;;0.51;92.09
36692;BME280;22678;52.052;4.242;2024-01-11T12:04:57;103689.56;;;0.59;91.96
36692;BME280;22678;52.052;4.242;2024-01-11T12:07:23;103678.66;;;0.63;92.09
36692;BME280;22678;52.052;4.242;2024-01-11T12:09:50;103674.78;;;0.68;91.99
36692;BME280;22678;52.052;4.242;2024-01-11T12:12:16;103666.69;;;0.75;92.09
36692;BME280;22678;52.052;4.242;2024-01-11T12:14:47;103665.13;;;0.77;92.06
36692;BME280;22678;52.052;4.242;2024-01-11T12:17:13;103671.94;;;0.87;91.98
36692;BME280;22678;52.052;4.242;2024-01-11T12:19:38;103673.28;;;0.94;91.95
36692;BME280;22678;52.052;4.242;2024-01-11T12:22:04;103657.72;;;0.94;92.45
36692;BME280;22678;52.052;4.242;2024-01-11T12:24:29;103665.19;;;1.01;92.35
36692;BME280;22678;52.052;4.242;2024-01-11T12:26:56;103655.84;;;1.03;91.83
36692;BME280;22678;52.052;4.242;2024-01-11T12:29:22;103662.53;;;1.11;91.89
36692;BME280;22678;52.052;4.242;2024-01-11T12:31:48;103658.47;;;1.15;91.90
36692;BME280;22678;52.052;4.242;2024-01-11T12:34:14;103650.81;;;1.16;91.75
36692;BME280;22678;52.052;4.242;2024-01-11T12:36:40;103651.28;;;1.22;91.96
36692;BME280;22678;52.052;4.242;2024-01-11T12:39:06;103651.41;;;1.24;91.84
36692;BME280;22678;52.052;4.242;2024-01-11T12:41:32;103635.28;;;1.28;91.92
36692;BME280;22678;52.052;4.242;2024-01-11T12:43:58;103626.47;;;1.26;92.02
36692;BME280;22678;52.052;4.242;2024-01-11T12:46:23;103636.63;;;1.35;92.11
36692;BME280;22678;52.052;4.242;2024-01-11T12:48:49;103626.38;;;1.36;91.90